Time;durP1;ratioP1;P1;durP2;ratioP2;P2;SDS_P1;SDS_P2;PMS_P1;PMS_P2;Temp;Humidity;BMP_temperature;BMP_pressure;BME280_temperature;BME280_humidity;BME280_pressure;Samples;Min_cycle;Max_cycle;Signal;HPM_P1;HPM_P2
2022/06/25 00:01:10;;;;;;;10.63;6.47;;;;;;;16.94;59.46;100026.19;4985194;28;20046;-83
2022/06/25 00:03:37;;;;;;;11.13;6.22;;;;;;;16.93;59.25;100027.09;4983962;28;20135;-79
2022/06/25 00:06:04;;;;;;;19.00;6.78;;;;;;;16.85;59.15;100022.09;4993623;28;20046;-81
2022/06/25 00:08:30;;;;;;;22.90;6.97;;;;;;;16.68;59.25;100006.84;4987553;28;20057;-81
2022/06/25 00:10:56;;;;;;;17.65;6.50;;;;;;;16.63;59.60;99993.84;4986144;28;20501;-80
2022/06/25 00:13:22;;;;;;;12.50;6.30;;;;;;;16.69;59.63;100003.31;4981381;28;20046;-81
2022/06/25 00:15:49;;;;;;;13.77;6.93;;;;;;;16.85;59.30;100038.72;4981749;28;20432;-78
2022/06/25 00:18:16;;;;;;;14.65;6.60;;;;;;;16.74;59.80;100025.06;4968531;28;20053;-81
2022/06/25 00:20:43;;;;;;;14.95;7.20;;;;;;;16.81;59.49;100029.22;4981601;28;20061;-81
2022/06/25 00:23:09;;;;;;;28.70;8.57;;;;;;;16.74;59.20;100026.84;4969727;28;20054;-82
2022/06/25 00:25:35;;;;;;;14.48;6.45;;;;;;;16.81;59.58;100039.72;4981770;28;20077;-80
2022/06/25 00:28:01;;;;;;;16.35;7.47;;;;;;;16.88;59.50;100050.06;4979571;28;20043;-81
2022/06/25 00:30:28;;;;;;;12.60;6.82;;;;;;;16.79;59.64;100038.91;4964105;28;20046;-81
2022/06/25 00:32:57;;;;;;;17.75;7.68;;;;;;;16.68;59.67;100017.34;4983923;28;20038;-82
2022/06/25 00:35:24;;;;;;;18.20;7.65;;;;;;;16.78;59.66;100042.44;4998879;28;20042;-81
2022/06/25 00:37:50;;;;;;;18.45;8.10;;;;;;;16.80;59.76;100056.41;5001078;28;20054;-80
2022/06/25 00:40:17;;;;;;;19.20;7.40;;;;;;;16.83;60.05;100064.19;5002882;28;20054;-80
2022/06/25 00:42:44;;;;;;;11.10;6.47;;;;;;;16.83;60.17;100066.81;5017919;28;20054;-79
2022/06/25 00:45:11;;;;;;;20.23;8.50;;;;;;;16.79;60.07;100061.69;5005263;28;20061;-81
2022/06/25 00:47:37;;;;;;;14.95;7.00;;;;;;;16.71;60.22;100059.28;4985028;28;20070;-80
2022/06/25 00:50:08;;;;;;;19.13;7.97;;;;;;;16.70;60.13;100053.19;4993747;28;20051;-82
2022/06/25 00:52:35;;;;;;;14.82;7.63;;;;;;;16.77;60.38;100069.63;5001612;28;20042;-81
2022/06/25 00:55:07;;;;;;;22.23;9.90;;;;;;;16.75;60.24;100079.31;4988668;28;20042;-80
2022/06/25 00:57:35;;;;;;;19.35;8.85;;;;;;;16.68;60.33;100075.16;4999384;28;20045;-80
2022/06/25 01:00:08;;;;;;;20.27;8.43;;;;;;;16.58;60.42;100074.56;4988250;28;20054;-80
2022/06/25 01:02:36;;;;;;;27.70;9.48;;;;;;;16.44;60.64;100059.19;4988442;28;20042;-80
2022/06/25 01:05:07;;;;;;;19.95;9.20;;;;;;;16.60;60.80;100087.66;4999516;28;20424;-82
2022/06/25 01:07:34;;;;;;;19.63;8.85;;;;;;;16.34;60.90;100063.00;4972603;28;20047;-83
2022/06/25 01:10:01;;;;;;;16.08;8.07;;;;;;;16.54;61.21;100091.34;4988623;28;20519;-82
2022/06/25 01:12:29;;;;;;;14.18;7.97;;;;;;;16.37;61.17;100060.31;4966271;28;20127;-80
2022/06/25 01:15:08;;;;;;;14.10;7.28;;;;;;;16.60;61.36;100108.69;4979251;28;20018;-81
2022/06/25 01:17:38;;;;;;;23.35;7.68;;;;;;;16.58;61.37;100107.88;4990928;28;20046;-80
2022/06/25 01:20:05;;;;;;;24.63;7.85;;;;;;;16.53;60.89;100100.97;4986224;28;20520;-78
2022/06/25 01:22:32;;;;;;;15.57;7.30;;;;;;;16.49;61.37;100109.84;4969709;28;20052;-81
2022/06/25 01:24:59;;;;;;;18.92;7.35;;;;;;;16.45;61.33;100107.34;4984372;28;20053;-81
2022/06/25 01:27:25;;;;;;;16.58;8.48;;;;;;;16.46;61.66;100111.69;4991216;28;20035;-80
2022/06/25 01:29:51;;;;;;;19.75;8.07;;;;;;;16.49;61.61;100116.88;4993831;28;20078;-83
2022/06/25 01:32:17;;;;;;;18.20;7.38;;;;;;;16.39;62.00;100100.53;5002363;28;20116;-80
2022/06/25 01:34:43;;;;;;;15.43;7.50;;;;;;;16.54;61.67;100123.72;4982174;28;20129;-80
2022/06/25 01:37:11;;;;;;;20.48;7.15;;;;;;;16.54;61.82;100126.34;4983659;28;20068;-82
2022/06/25 01:39:37;;;;;;;16.50;6.82;;;;;;;16.64;61.70;100128.72;4985972;28;20042;-78
2022/06/25 01:42:03;;;;;;;13.85;6.70;;;;;;;16.72;61.80;100131.97;4990936;28;20082;-80
2022/06/25 01:44:29;;;;;;;19.65;6.88;;;;;;;16.78;61.77;100133.53;4991814;28;20513;-80
2022/06/25 01:46:59;;;;;;;14.50;8.23;;;;;;;16.56;61.37;100082.50;4996613;28;20448;-80
2022/06/25 01:49:25;;;;;;;15.55;8.13;;;;;;;16.84;61.68;100117.59;4991626;28;20073;-80
2022/06/25 01:51:51;;;;;;;15.57;9.02;;;;;;;16.54;61.33;100073.81;4990189;28;20053;-82
2022/06/25 01:54:18;;;;;;;13.48;8.38;;;;;;;16.96;61.74;100132.19;4992264;28;20042;-82
2022/06/25 01:56:44;;;;;;;19.95;8.40;;;;;;;16.93;61.48;100119.97;4979656;28;20042;-80
2022/06/25 01:59:10;;;;;;;16.23;7.78;;;;;;;17.11;61.53;100121.19;4989097;28;20070;-80
2022/06/25 02:01:37;;;;;;;12.30;7.43;;;;;;;17.21;61.49;100123.53;4991459;28;20042;-80
2022/06/25 02:04:03;;;;;;;14.70;7.70;;;;;;;17.08;60.91;100097.66;4969019;28;20073;-80
2022/06/25 02:06:32;;;;;;;14.25;7.30;;;;;;;17.15;61.34;100100.94;4987602;28;20044;-81
2022/06/25 02:08:59;;;;;;;11.52;7.05;;;;;;;17.34;61.00;100122.22;4986383;28;20042;-83
2022/06/25 02:11:27;;;;;;;14.15;7.45;;;;;;;17.22;60.88;100093.72;4982731;28;20106;-80
2022/06/25 02:13:53;;;;;;;14.85;7.82;;;;;;;17.51;60.81;100129.59;4982692;28;20046;-80
2022/06/25 02:16:20;;;;;;;15.98;7.30;;;;;;;17.41;60.85;100107.97;4984687;28;20043;-81
2022/06/25 02:18:46;;;;;;;12.80;6.93;;;;;;;17.59;60.65;100113.53;4984011;28;20046;-80
2022/06/25 02:21:13;;;;;;;15.80;6.85;;;;;;;17.66;60.49;100116.81;4969866;28;20050;-84
2022/06/25 02:23:39;;;;;;;17.13;7.78;;;;;;;17.67;60.51;100108.91;4982220;28;20096;-81
2022/06/25 02:26:05;;;;;;;19.92;8.02;;;;;;;17.87;60.66;100118.78;4971081;28;20034;-82
2022/06/25 02:28:32;;;;;;;19.60;7.90;;;;;;;17.83;60.37;100101.34;5000464;28;20069;-81
2022/06/25 02:31:01;;;;;;;20.35;8.48;;;;;;;17.96;60.29;100107.06;4995292;28;20043;-83
2022/06/25 02:33:28;;;;;;;12.93;7.18;;;;;;;18.10;60.43;100109.22;4974864;28;20038;-79
2022/06/25 02:35:54;;;;;;;19.08;7.88;;;;;;;18.26;60.27;100117.44;4953962;28;20691;-83
2022/06/25 02:38:21;;;;;;;15.13;7.22;;;;;;;18.36;59.98;100124.09;4982669;28;20046;-81
2022/06/25 02:40:51;;;;;;;13.90;7.50;;;;;;;18.45;60.05;100114.13;4981250;28;20661;-81
2022/06/25 02:43:19;;;;;;;16.65;7.18;;;;;;;18.60;59.89;100123.25;4970113;28;20093;-79
2022/06/25 02:45:51;;;;;;;13.10;7.03;;;;;;;18.55;59.45;100098.84;4969743;28;20046;-80
2022/06/25 02:48:17;;;;;;;12.75;6.80;;;;;;;18.66;59.33;100096.69;4999122;28;20504;-80
2022/06/25 02:50:44;;;;;;;16.45;7.82;;;;;;;18.59;59.14;100067.06;4988956;28;20045;-79
2022/06/25 02:53:12;;;;;;;13.73;7.93;;;;;;;18.90;58.98;100099.28;4989072;28;20068;-82
2022/06/25 03:01:10;;;;;;;11.45;7.57;;;;;;;19.42;58.00;100120.13;4968300;28;20169;-80
2022/06/25 03:03:36;;;;;;;14.30;7.07;;;;;;;19.58;57.68;100130.94;4984169;28;20077;-81
2022/06/25 03:06:03;;;;;;;12.65;8.32;;;;;;;19.72;57.11;100138.28;4987806;28;20049;-79
2022/06/25 03:08:30;;;;;;;12.35;6.90;;;;;;;19.87;57.00;100144.66;4963594;28;20143;-81
2022/06/25 03:10:57;;;;;;;10.73;7.40;;;;;;;19.81;56.93;100132.59;4968665;28;20046;-82
2022/06/25 03:13:23;;;;;;;9.77;6.60;;;;;;;20.04;56.96;100153.72;4968856;28;20049;-81
2022/06/25 03:15:49;;;;;;;12.43;7.47;;;;;;;20.06;56.34;100139.50;4985598;28;20404;-81
2022/06/25 03:18:15;;;;;;;10.65;6.05;;;;;;;20.31;56.15;100154.28;4980382;28;20050;-83
2022/06/25 03:20:47;;;;;;;15.05;6.80;;;;;;;20.50;56.02;100150.84;4985268;28;20042;-82
2022/06/25 03:23:13;;;;;;;10.02;6.22;;;;;;;20.53;55.56;100134.84;4980896;28;20049;-82
2022/06/25 03:25:42;;;;;;;14.57;6.63;;;;;;;20.77;54.92;100149.63;4980474;28;20050;-79
2022/06/25 03:28:08;;;;;;;11.35;8.60;;;;;;;20.87;55.14;100157.13;4982257;28;20093;-82
2022/06/25 03:30:36;;;;;;;15.88;6.90;;;;;;;20.94;54.51;100150.63;4969390;28;20058;-81
2022/06/25 03:33:03;;;;;;;13.15;6.35;;;;;;;21.09;54.18;100153.47;4981511;28;20483;-81
2022/06/25 03:35:55;;;;;;;12.52;7.00;;;;;;;21.02;53.84;100124.69;4978842;28;20073;-82
2022/06/25 03:38:23;;;;;;;9.48;6.38;;;;;;;21.25;53.56;100138.59;4980166;28;20061;-83
2022/06/25 03:41:32;;;;;;;12.25;6.20;;;;;;;21.46;53.22;100147.28;4985981;28;20050;-81
2022/06/25 03:43:37;;;;;;;7.53;5.85;;;;;;;21.70;53.24;100162.06;4980000;28;20050;-79
2022/06/25 03:46:04;;;;;;;10.30;6.28;;;;;;;21.85;52.28;100171.06;4968379;28;20079;-79
2022/06/25 03:48:30;;;;;;;10.43;6.10;;;;;;;21.88;52.23;100144.38;4984139;28;20045;-82
2022/06/25 03:51:09;;;;;;;8.95;5.63;;;;;;;22.05;52.05;100156.78;4976936;28;20044;-83
2022/06/25 03:53:35;;;;;;;8.95;5.90;;;;;;;22.20;51.39;100158.63;4984941;28;20050;-80
2022/06/25 03:56:01;;;;;;;13.20;5.82;;;;;;;22.14;50.96;100139.53;4998286;28;20047;-79
2022/06/25 03:58:34;;;;;;;9.43;5.75;;;;;;;22.52;51.01;100176.47;4980092;28;20057;-81
2022/06/25 04:01:00;;;;;;;9.88;5.57;;;;;;;22.64;50.49;100174.94;4993127;28;20047;-83
2022/06/25 04:03:26;;;;;;;8.52;5.60;;;;;;;22.61;50.13;100153.94;4968464;28;20046;-81
2022/06/25 04:06:00;;;;;;;12.55;5.90;;;;;;;22.75;50.28;100162.00;4964997;28;20499;-82
2022/06/25 04:08:36;;;;;;;10.75;5.65;;;;;;;23.01;50.18;100179.13;4968373;28;20046;-80
2022/06/25 04:11:04;;;;;;;9.30;5.65;;;;;;;23.16;49.66;100180.09;4968475;28;20038;-82
2022/06/25 04:13:31;;;;;;;6.38;5.05;;;;;;;23.10;49.27;100150.38;4968249;28;20077;-83
2022/06/25 04:15:57;;;;;;;14.93;5.60;;;;;;;23.38;49.16;100173.59;4990474;28;20045;-82
2022/06/25 04:18:24;;;;;;;8.02;5.03;;;;;;;23.56;48.75;100181.47;4997167;28;20088;-80
2022/06/25 04:20:50;;;;;;;6.53;5.20;;;;;;;23.65;48.88;100183.59;4985926;28;20043;-81
2022/06/25 04:23:17;;;;;;;8.38;5.40;;;;;;;23.74;48.51;100169.75;4951807;28;20054;-80
2022/06/25 04:25:44;;;;;;;10.63;5.72;;;;;;;23.90;48.00;100172.38;4962541;28;20042;-79
2022/06/25 04:30:59;;;;;;;10.02;5.28;;;;;;;24.25;47.70;100162.44;4996623;28;20042;-81
2022/06/25 04:33:26;;;;;;;8.02;5.10;;;;;;;24.42;47.65;100180.00;4979103;28;20077;-80
2022/06/25 04:35:57;;;;;;;10.82;5.32;;;;;;;24.63;47.26;100183.16;4966574;28;20480;-81
2022/06/25 04:38:42;;;;;;;7.70;5.28;;;;;;;24.87;46.91;100186.13;4981175;28;20049;-80
2022/06/25 04:41:08;;;;;;;6.80;4.40;;;;;;;25.05;46.79;100180.59;4979364;28;20345;-80
2022/06/25 04:43:35;;;;;;;8.25;4.88;;;;;;;24.67;46.13;100111.06;4971359;28;20510;-81
2022/06/25 04:46:11;;;;;;;7.55;4.85;;;;;;;25.10;45.61;100159.84;4981935;28;20045;-80
2022/06/25 04:49:04;;;;;;;8.55;4.85;;;;;;;25.23;45.24;100157.25;4958367;28;20041;-80
2022/06/25 04:51:41;;;;;;;4.88;4.38;;;;;;;25.31;45.03;100149.66;4972473;28;20120;-82
2022/06/25 04:54:07;;;;;;;5.60;4.18;;;;;;;25.71;44.94;100183.47;4971330;28;20129;-80
2022/06/25 04:56:39;;;;;;;7.32;4.90;;;;;;;25.81;44.21;100189.91;4972741;28;20065;-82
2022/06/25 04:59:06;;;;;;;5.47;4.40;;;;;;;25.84;44.07;100171.03;4971408;28;20042;-82
2022/06/25 05:01:58;;;;;;;5.55;4.82;;;;;;;26.02;43.29;100176.97;4989971;28;20057;-82
2022/06/25 05:04:48;;;;;;;7.07;5.05;;;;;;;25.95;43.05;100161.44;5000585;28;20050;-81
2022/06/25 05:07:19;;;;;;;8.40;5.38;;;;;;;26.19;43.00;100169.63;4984011;28;20074;-79
2022/06/25 05:09:45;;;;;;;6.30;4.50;;;;;;;26.45;42.96;100197.16;4971848;28;20521;-82
2022/06/25 05:13:11;;;;;;;5.67;4.97;;;;;;;26.53;42.28;100172.63;4987504;28;20038;-82
2022/06/25 05:15:02;;;;;;;6.75;4.93;;;;;;;26.83;42.23;100190.13;4999801;28;20104;-82
2022/06/25 05:17:31;;;;;;;4.93;4.43;;;;;;;26.57;41.42;100125.25;4984276;28;20121;-83
2022/06/25 05:19:57;;;;;;;7.70;4.55;;;;;;;26.96;41.51;100171.44;4980820;28;20046;-81
2022/06/25 05:22:23;;;;;;;6.85;4.60;;;;;;;27.07;41.22;100170.66;4981151;28;20973;-81
2022/06/25 05:24:49;;;;;;;5.43;4.75;;;;;;;27.30;41.11;100198.34;4969451;28;20050;-82
2022/06/25 05:27:16;;;;;;;7.95;4.60;;;;;;;27.08;40.50;100151.00;5005335;28;20061;-81
2022/06/25 05:29:50;;;;;;;11.32;5.68;;;;;;;27.31;40.75;100173.34;4989255;28;20054;-80
2022/06/25 05:32:19;;;;;;;37.08;5.55;;;;;;;27.03;40.36;100115.75;4967401;28;20046;-81
2022/06/25 05:34:57;;;;;;;6.55;4.70;;;;;;;27.02;40.13;100101.56;4982253;28;20061;-79
2022/06/25 05:37:24;;;;;;;6.45;4.57;;;;;;;27.76;39.73;100203.94;4986025;28;20424;-83
2022/06/25 05:39:51;;;;;;;7.32;5.00;;;;;;;27.75;39.31;100195.09;4971316;28;20414;-83
2022/06/25 05:42:19;;;;;;;6.95;4.82;;;;;;;27.83;39.33;100205.19;4984250;28;20422;-81
2022/06/25 05:44:47;;;;;;;5.10;4.60;;;;;;;27.78;39.13;100180.63;4978736;28;20039;-83
2022/06/25 05:47:13;;;;;;;5.78;4.97;;;;;;;28.07;39.19;100202.47;4986738;28;20038;-83
2022/06/25 05:49:39;;;;;;;7.30;5.50;;;;;;;28.29;38.48;100208.03;4984411;28;20057;-81
2022/06/25 05:52:26;;;;;;;8.00;5.00;;;;;;;28.23;38.19;100142.50;4973025;28;20042;-83
2022/06/25 05:55:03;;;;;;;5.72;4.88;;;;;;;29.53;37.60;100206.31;4984311;28;20093;-81
2022/06/25 05:57:29;;;;;;;9.90;4.88;;;;;;;31.31;35.74;100190.28;4968015;28;20034;-81
2022/06/25 06:00:08;;;;;;;9.85;4.68;;;;;;;33.44;32.83;100176.56;4974307;28;20054;-81
2022/06/25 06:02:41;;;;;;;8.30;5.00;;;;;;;35.68;30.15;100192.19;4988052;28;20038;-81
2022/06/25 06:05:08;;;;;;;6.20;4.55;;;;;;;36.81;28.72;100154.41;4986628;28;20476;-81
2022/06/25 06:07:39;;;;;;;7.30;4.57;;;;;;;38.30;26.53;100178.56;4985466;28;20396;-84
2022/06/25 06:10:08;;;;;;;8.52;5.07;;;;;;;39.88;24.59;100189.00;4971297;28;20042;-83
2022/06/25 06:13:13;;;;;;;6.65;5.13;;;;;;;40.91;22.64;100134.91;4986078;28;20046;-82
2022/06/25 06:15:49;;;;;;;10.32;6.13;;;;;;;41.97;21.73;100157.06;4935188;28;20145;-82
2022/06/25 06:18:36;;;;;;;8.70;4.22;;;;;;;42.84;20.88;100126.75;4960947;28;20138;-81
2022/06/25 06:21:06;;;;;;;5.35;4.47;;;;;;;43.86;19.03;100130.44;4972770;28;20042;-84
2022/06/25 06:23:32;;;;;;;12.57;7.50;;;;;;;45.03;18.41;100196.38;4984275;28;20089;-83
2022/06/25 06:26:00;;;;;;;5.80;4.03;;;;;;;45.39;17.43;100122.38;4970849;28;20038;-84
2022/06/25 06:29:13;;;;;;;5.70;4.03;;;;;;;45.82;15.71;100095.66;4984783;28;20480;-83
2022/06/25 06:31:39;;;;;;;7.05;4.18;;;;;;;46.52;15.50;100115.03;4983778;28;20046;-82
2022/06/25 06:34:54;;;;;;;;;;;;;;;;;;;;;
2022/06/25 06:38:29;;;;;;;6.50;4.57;;;;;;;47.79;14.49;100138.69;4981406;28;20376;-87
2022/06/25 06:40:56;;;;;;;7.75;5.15;;;;;;;48.17;14.12;100137.06;4983878;28;20039;-86
2022/06/25 06:43:50;;;;;;;7.10;4.53;;;;;;;48.42;13.39;100155.03;4983501;28;20095;-85
2022/06/25 06:46:39;;;;;;;10.10;6.55;;;;;;;48.64;12.61;100096.22;4984118;28;20100;-81
2022/06/25 06:49:07;;;;;;;7.55;5.05;;;;;;;49.51;12.64;100172.72;4974223;28;20096;-82
2022/06/25 06:51:33;;;;;;;5.72;4.57;;;;;;;49.88;12.21;100177.41;4997312;28;20047;-80
2022/06/25 06:54:06;;;;;;;4.05;3.65;;;;;;;49.79;11.56;100195.56;4988833;28;20064;-81
2022/06/25 06:56:32;;;;;;;9.05;6.60;;;;;;;50.08;11.09;100178.59;4996141;28;20054;-80
2022/06/25 06:58:59;;;;;;;4.97;4.47;;;;;;;50.18;11.40;100151.03;4982640;28;20049;-83
2022/06/25 07:01:51;;;;;;;5.88;3.83;;;;;;;50.72;10.76;100146.22;4986334;28;20143;-83
2022/06/25 07:04:38;;;;;;;7.93;7.20;;;;;;;51.51;10.60;100196.72;4973417;28;20045;-81
2022/06/25 07:07:07;;;;;;;4.43;4.03;;;;;;;51.76;10.24;100185.91;4971047;28;20427;-83
2022/06/25 07:09:33;;;;;;;15.40;14.02;;;;;;;52.01;9.68;100143.41;4986018;28;20035;-83
2022/06/25 07:12:11;;;;;;;4.97;4.40;;;;;;;52.22;9.47;100184.94;4988452;28;20042;-80
2022/06/25 07:15:05;;;;;;;5.15;4.10;;;;;;;52.40;9.78;100187.13;4970071;28;20639;-84
2022/06/25 07:17:48;;;;;;;7.57;5.68;;;;;;;51.51;10.29;100152.41;4982678;28;20054;-83
2022/06/25 07:20:27;;;;;;;12.35;11.30;;;;;;;52.40;9.55;100161.31;4986704;28;20105;-82
2022/06/25 07:23:11;;;;;;;4.20;3.90;;;;;;;52.08;9.36;100124.53;4968814;28;20411;-84
2022/06/25 07:25:40;;;;;;;6.35;5.72;;;;;;;51.13;10.25;100146.28;4985158;28;20336;-83
2022/06/25 07:28:12;;;;;;;3.83;3.45;;;;;;;51.28;9.22;100137.16;4982156;28;20608;-82
2022/06/25 07:31:04;;;;;;;5.70;4.25;;;;;;;52.00;9.53;100163.13;4965153;28;20149;-82
2022/06/25 07:33:34;;;;;;;4.22;3.83;;;;;;;52.73;8.74;100139.50;4972437;28;20042;-82
2022/06/25 07:36:07;;;;;;;20.15;18.52;;;;;;;52.86;9.03;100086.06;4980673;28;20062;-85
2022/06/25 07:38:53;;;;;;;22.25;20.17;;;;;;;53.07;8.37;100158.13;4968421;28;20049;-81
2022/06/25 07:41:34;;;;;;;12.90;11.80;;;;;;;52.75;8.60;100134.47;4982310;28;20053;-82
2022/06/25 07:44:53;;;;;;;5.35;4.28;;;;;;;50.14;9.66;100059.47;4983424;28;20041;-83
2022/06/25 07:47:22;;;;;;;3.90;3.60;;;;;;;50.41;9.85;100112.94;4957564;28;20033;-83
2022/06/25 07:52:55;;;;;;;24.70;22.48;;;;;;;51.34;9.88;100154.63;4941749;29;19972;-82
2022/06/25 07:55:22;;;;;;;4.70;4.38;;;;;;;52.33;8.67;100127.50;4980481;28;20400;-81
2022/06/25 07:57:48;;;;;;;5.18;3.80;;;;;;;53.01;8.84;100153.72;4968166;28;20463;-83
2022/06/25 08:00:16;;;;;;;4.28;3.85;;;;;;;52.28;8.68;100163.59;4980928;28;20047;-82
2022/06/25 08:02:42;;;;;;;7.47;6.80;;;;;;;52.41;8.46;100121.34;4983365;28;20049;-84
2022/06/25 08:05:08;;;;;;;6.40;5.80;;;;;;;53.29;8.41;100154.94;4968967;28;20030;-84
2022/06/25 08:07:34;;;;;;;4.15;3.72;;;;;;;53.39;8.08;100159.56;4997890;28;20046;-82
2022/06/25 08:10:04;;;;;;;4.55;4.15;;;;;;;52.33;8.63;100106.13;4952432;28;20034;-81
2022/06/25 08:12:30;;;;;;;4.63;4.22;;;;;;;51.77;9.35;100099.69;4967973;28;20053;-84
2022/06/25 08:15:07;;;;;;;4.15;3.80;;;;;;;52.86;8.38;100157.41;4984514;28;20043;-84
2022/06/25 08:17:51;;;;;;;4.22;3.85;;;;;;;51.96;9.12;100090.78;4959287;28;20046;-81
2022/06/25 08:20:23;;;;;;;4.15;3.85;;;;;;;53.04;8.15;100147.59;4994490;28;20046;-81
2022/06/25 08:23:21;;;;;;;4.38;3.63;;;;;;;53.19;8.17;100088.31;4999569;28;20154;-83
2022/06/25 08:25:55;;;;;;;7.65;7.13;;;;;;;54.23;7.41;100056.53;4988811;28;20138;-83
2022/06/25 08:28:57;;;;;;;6.63;3.65;;;;;;;54.38;7.65;100052.72;4984878;28;20153;-80
2022/06/25 08:31:47;;;;;;;4.25;3.85;;;;;;;53.59;7.80;100086.22;4985360;28;20042;-84
2022/06/25 08:34:13;;;;;;;5.90;3.50;;;;;;;54.04;7.53;100151.91;4968505;28;20054;-81
2022/06/25 08:36:42;;;;;;;4.47;4.07;;;;;;;54.55;7.92;100133.69;4967564;28;20128;-83
2022/06/25 08:39:14;;;;;;;;;;;;;;;54.96;7.34;100143.41;4969439;28;20133;-86
2022/06/25 08:41:50;;;;;;;5.35;3.88;;;;;;;54.79;7.72;100130.88;4967032;28;20036;-83
2022/06/25 08:44:30;;;;;;;4.50;4.10;;;;;;;54.61;7.56;100042.63;4983416;28;20035;-83
2022/06/25 08:47:24;;;;;;;6.45;5.78;;;;;;;55.16;7.28;100055.88;4968780;28;20042;-81
2022/06/25 08:49:51;;;;;;;7.60;4.90;;;;;;;55.62;6.95;100129.44;4977028;28;20046;-84
2022/06/25 08:52:28;;;;;;;4.43;3.83;;;;;;;54.59;7.63;100106.09;4981398;28;20077;-83
2022/06/25 08:54:56;;;;;;;5.47;4.45;;;;;;;54.29;7.63;100113.78;4995700;28;20077;-84
2022/06/25 08:57:24;;;;;;;4.68;4.28;;;;;;;53.09;7.85;100107.84;4981395;28;20038;-82
2022/06/25 08:59:51;;;;;;;5.05;4.53;;;;;;;52.37;8.46;100123.03;4964891;28;20046;-83
2022/06/25 09:02:23;;;;;;;6.38;4.40;;;;;;;51.71;8.91;100120.22;4984587;28;20054;-81
2022/06/25 09:05:55;;;;;;;4.90;4.40;;;;;;;51.38;8.57;100031.91;4961749;28;20030;-82
2022/06/25 09:09:29;;;;;;;7.18;4.60;;;;;;;52.59;8.74;100124.56;4920247;28;20466;-81
2022/06/25 09:12:32;;;;;;;4.45;4.00;;;;;;;53.09;8.33;100067.00;4981537;28;20043;-81
2022/06/25 09:15:34;;;;;;;46.53;42.72;;;;;;;53.96;8.44;100127.56;4963640;28;20066;-84
2022/06/25 09:18:11;;;;;;;6.00;5.50;;;;;;;54.74;8.09;100121.75;4984869;28;20126;-82
2022/06/25 09:20:55;;;;;;;5.25;4.57;;;;;;;54.74;7.70;100125.38;5003368;28;21146;-82
2022/06/25 09:23:21;;;;;;;6.93;6.32;;;;;;;54.62;8.09;100088.84;4969940;28;20129;-83
2022/06/25 09:26:11;;;;;;;3.97;3.50;;;;;;;54.39;7.50;100071.06;4984852;28;20042;-82
2022/06/25 09:28:50;;;;;;;4.60;3.80;;;;;;;53.38;8.05;100034.78;4988405;28;20049;-82
2022/06/25 09:31:37;;;;;;;4.38;3.80;;;;;;;53.75;7.80;100066.59;4989784;28;20072;-82
2022/06/25 09:34:14;;;;;;;7.10;6.60;;;;;;;54.17;8.09;100114.19;4976601;28;20065;-85
2022/06/25 09:36:43;;;;;;;4.53;4.13;;;;;;;53.97;8.23;100098.59;4963060;28;20134;-84
2022/06/25 09:42:35;;;;;;;4.15;3.55;;;;;;;53.28;7.94;100075.47;5727813;23;19925;-83
2022/06/25 09:45:09;;;;;;;8.35;4.40;;;;;;;53.87;8.14;100108.72;5032238;28;20098;-84
2022/06/25 09:47:45;;;;;;;5.82;4.38;;;;;;;54.45;7.81;100118.00;5030567;28;20045;-83
2022/06/25 09:54:30;;;;;;;6.55;5.00;;;;;;;53.96;8.06;100088.63;5031441;28;20046;-83
2022/06/25 09:56:57;;;;;;;5.72;5.28;;;;;;;54.58;7.40;100123.94;5038623;28;20065;-80
2022/06/25 09:59:25;;;;;;;5.50;4.88;;;;;;;54.89;7.78;100054.66;5036175;28;20084;-83
2022/06/25 10:02:03;;;;;;;4.85;4.40;;;;;;;55.12;7.81;100109.72;5006535;28;20136;-82
2022/06/25 10:09:03;;;;;;;5.18;4.47;;;;;;;55.15;7.33;100047.81;5029257;28;20042;-82
2022/06/25 10:11:42;;;;;;;4.97;4.40;;;;;;;54.72;7.34;100110.13;5032619;28;20749;-80
2022/06/25 10:14:15;;;;;;;5.00;4.20;;;;;;;53.71;7.67;100043.31;5031204;28;20444;-81
2022/06/25 10:16:43;;;;;;;4.60;3.80;;;;;;;53.40;7.61;100082.56;5027347;28;20408;-83
2022/06/25 10:19:16;;;;;;;7.75;3.90;;;;;;;52.59;8.31;100083.81;5028951;28;20053;-80
2022/06/25 10:21:43;;;;;;;5.68;3.45;;;;;;;51.75;8.87;100084.44;5010318;28;20053;-83
2022/06/25 10:24:10;;;;;;;7.53;3.42;;;;;;;50.92;8.97;100110.28;5023026;28;20048;-84
2022/06/25 10:26:36;;;;;;;11.90;10.90;;;;;;;49.72;10.18;100107.34;5005858;28;20540;-84
2022/06/25 10:29:21;;;;;;;4.60;3.42;;;;;;;48.55;10.72;100102.22;5020586;28;20046;-81
2022/06/25 10:31:48;;;;;;;5.35;3.25;;;;;;;46.53;11.69;100090.03;5005241;28;20467;-83
2022/06/25 10:34:15;;;;;;;5.95;4.15;;;;;;;45.39;12.51;100103.16;5006723;28;20048;-81
2022/06/25 10:36:48;;;;;;;5.32;4.47;;;;;;;44.36;12.76;100085.63;5004174;28;20387;-82
2022/06/25 10:39:38;;;;;;;9.63;8.10;;;;;;;43.82;13.45;100100.97;5023551;28;20076;-81
2022/06/25 10:45:04;;;;;;;3.50;3.20;;;;;;;42.41;14.09;100091.84;5001065;28;20144;-80
2022/06/25 10:47:38;;;;;;;12.70;11.60;;;;;;;40.78;15.87;99997.47;4988353;28;20041;-82
2022/06/25 10:50:27;;;;;;;4.18;3.10;;;;;;;40.36;16.15;100100.28;5000924;28;20050;-80
2022/06/25 10:53:13;;;;;;;6.00;4.70;;;;;;;39.20;16.91;100052.53;4989394;28;20511;-79
2022/06/25 10:55:47;;;;;;;8.68;4.90;;;;;;;38.91;17.29;100096.00;4958041;28;20053;-83
2022/06/25 10:58:28;;;;;;;5.18;4.15;;;;;;;38.28;17.95;100091.84;5005960;28;20549;-82
2022/06/25 11:01:01;;;;;;;8.60;5.53;;;;;;;37.85;18.30;100091.63;5003853;28;20481;-85
2022/06/25 11:03:30;;;;;;;5.32;4.70;;;;;;;37.53;18.53;100091.75;4989383;28;20145;-81
2022/06/25 11:05:59;;;;;;;4.50;4.10;;;;;;;37.26;18.63;100087.72;4999127;28;20403;-80
2022/06/25 11:08:36;;;;;;;93.63;84.53;;;;;;;36.37;19.41;99972.41;5007343;28;20107;-83
2022/06/25 11:11:03;;;;;;;8.32;6.07;;;;;;;36.71;19.00;100090.41;5001934;28;20041;-81
2022/06/25 11:13:30;;;;;;;19.27;17.30;;;;;;;36.12;19.77;100023.13;4986792;28;20053;-84
2022/06/25 11:15:56;;;;;;;22.33;20.02;;;;;;;36.42;19.71;100085.63;4975552;28;20034;-82
2022/06/25 11:18:29;;;;;;;17.90;15.30;;;;;;;36.36;19.85;100091.75;4993442;28;20046;-82
2022/06/25 11:20:55;;;;;;;9.25;7.43;;;;;;;36.01;20.22;100054.13;5001724;28;20415;-81
2022/06/25 11:23:26;;;;;;;4.53;3.20;;;;;;;35.91;20.80;100056.19;5005214;28;20530;-80
2022/06/25 11:28:53;;;;;;;5.47;3.30;;;;;;;35.66;20.70;100084.09;5001156;28;20108;-83
2022/06/25 11:31:22;;;;;;;5.72;4.75;;;;;;;35.33;21.52;100085.94;5003243;28;20044;-81
2022/06/25 11:33:51;;;;;;;4.03;3.38;;;;;;;34.99;21.93;100068.88;5010473;28;20384;-82
2022/06/25 11:36:19;;;;;;;3.92;3.10;;;;;;;34.90;22.30;100086.88;5004348;28;20066;-80
2022/06/25 11:38:53;;;;;;;4.15;3.10;;;;;;;34.44;22.58;100092.69;5003517;28;20748;-80
2022/06/25 11:41:25;;;;;;;3.13;2.60;;;;;;;34.15;23.25;100103.81;4985673;28;20101;-81
2022/06/25 11:43:53;;;;;;;22.58;20.17;;;;;;;33.97;23.22;100090.38;4984933;28;20089;-80
2022/06/25 11:46:20;;;;;;;3.47;2.65;;;;;;;33.91;22.86;100100.78;5004419;28;20104;-82
2022/06/25 11:48:52;;;;;;;3.40;3.10;;;;;;;33.68;23.21;100075.31;5006408;28;20046;-80
2022/06/25 11:51:26;;;;;;;9.23;4.38;;;;;;;33.62;23.23;100088.44;4987750;28;20368;-83
2022/06/25 11:53:53;;;;;;;8.05;3.58;;;;;;;33.42;23.54;100082.38;4988343;28;20049;-81
2022/06/25 11:56:19;;;;;;;8.90;7.32;;;;;;;32.73;23.64;99985.88;5002270;28;20124;-82
2022/06/25 11:58:46;;;;;;;3.83;3.03;;;;;;;33.10;24.15;100088.28;5002253;28;20108;-83
2022/06/25 12:01:13;;;;;;;6.32;5.05;;;;;;;32.35;24.32;99998.59;4999964;28;20049;-86
2022/06/25 12:03:39;;;;;;;6.20;4.07;;;;;;;31.81;24.73;99918.56;4984829;28;20049;-83
2022/06/25 12:06:05;;;;;;;5.00;4.28;;;;;;;32.67;24.53;100082.56;5005059;28;20045;-83
2022/06/25 12:08:33;;;;;;;5.32;3.38;;;;;;;32.59;24.50;100065.34;5003117;28;20061;-82
2022/06/25 12:11:01;;;;;;;3.28;2.90;;;;;;;32.71;24.88;100083.97;4999871;28;20048;-83
2022/06/25 12:13:29;;;;;;;7.15;3.72;;;;;;;32.65;24.33;100069.28;4987724;28;20038;-83
2022/06/25 12:16:00;;;;;;;6.82;3.55;;;;;;;32.67;24.72;100072.66;5002271;28;20057;-81
2022/06/25 12:18:36;;;;;;;;;;;;;;;32.42;25.39;100075.06;4988348;28;20078;-83